sensor_id;sensor_type;location;lat;lon;timestamp;P1;durP1;ratioP1;P2;durP2;ratioP2
21630;SDS011;10977;46.802;11.952;2022-12-11T00:00:42;3.35;;;2.70;;
21630;SDS011;10977;46.802;11.952;2022-12-11T00:03:08;2.58;;;2.38;;
21630;SDS011;10977;46.802;11.952;2022-12-11T00:05:33;2.55;;;2.28;;
21630;SDS011;10977;46.802;11.952;2022-12-11T00:07:59;2.10;;;1.90;;
21630;SDS011;10977;46.802;11.952;2022-12-11T00:10:25;2.50;;;1.98;;
21630;SDS011;10977;46.802;11.952;2022-12-11T00:12:50;2.67;;;2.47;;
21630;SDS011;10977;46.802;11.952;2022-12-11T00:15:16;2.45;;;2.25;;
21630;SDS011;10977;46.802;11.952;2022-12-11T00:17:41;2.67;;;2.47;;
21630;SDS011;10977;46.802;11.952;2022-12-11T00:20:07;3.13;;;2.83;;
21630;SDS011;10977;46.802;11.952;2022-12-11T00:22:33;3.45;;;2.92;;
21630;SDS011;10977;46.802;11.952;2022-12-11T00:24:58;3.50;;;3.20;;
21630;SDS011;10977;46.802;11.952;2022-12-11T00:27:24;3.45;;;2.72;;
21630;SDS011;10977;46.802;11.952;2022-12-11T00:29:49;3.13;;;2.80;;
21630;SDS011;10977;46.802;11.952;2022-12-11T00:32:15;3.40;;;3.10;;
21630;SDS011;10977;46.802;11.952;2022-12-11T00:34:40;3.45;;;2.92;;
21630;SDS011;10977;46.802;11.952;2022-12-11T00:37:05;2.90;;;2.60;;
21630;SDS011;10977;46.802;11.952;2022-12-11T00:39:31;3.33;;;2.85;;
21630;SDS011;10977;46.802;11.952;2022-12-11T00:41:56;2.83;;;2.45;;
21630;SDS011;10977;46.802;11.952;2022-12-11T00:44:22;4.43;;;3.08;;
21630;SDS011;10977;46.802;11.952;2022-12-11T00:46:48;2.92;;;2.47;;
21630;SDS011;10977;46.802;11.952;2022-12-11T00:49:13;2.88;;;2.60;;
21630;SDS011;10977;46.802;11.952;2022-12-11T00:51:39;2.58;;;2.38;;
21630;SDS011;10977;46.802;11.952;2022-12-11T00:54:04;3.42;;;2.50;;
21630;SDS011;10977;46.802;11.952;2022-12-11T00:56:30;2.28;;;2.08;;
21630;SDS011;10977;46.802;11.952;2022-12-11T00:58:56;2.42;;;2.00;;
21630;SDS011;10977;46.802;11.952;2022-12-11T01:01:22;2.55;;;2.35;;
21630;SDS011;10977;46.802;11.952;2022-12-11T01:03:49;3.15;;;2.25;;
21630;SDS011;10977;46.802;11.952;2022-12-11T01:06:20;2.70;;;2.50;;
21630;SDS011;10977;46.802;11.952;2022-12-11T01:08:48;2.05;;;1.85;;
21630;SDS011;10977;46.802;11.952;2022-12-11T01:11:33;2.45;;;2.22;;
21630;SDS011;10977;46.802;11.952;2022-12-11T01:13:59;2.65;;;2.40;;
21630;SDS011;10977;46.802;11.952;2022-12-11T01:16:24;2.55;;;2.10;;
21630;SDS011;10977;46.802;11.952;2022-12-11T01:18:49;2.38;;;2.17;;
21630;SDS011;10977;46.802;11.952;2022-12-11T01:21:15;2.08;;;1.63;;
21630;SDS011;10977;46.802;11.952;2022-12-11T01:23:40;2.33;;;1.88;;
21630;SDS011;10977;46.802;11.952;2022-12-11T01:26:13;1.70;;;1.60;;
21630;SDS011;10977;46.802;11.952;2022-12-11T01:28:39;1.70;;;1.60;;
21630;SDS011;10977;46.802;11.952;2022-12-11T01:31:08;2.28;;;1.90;;
21630;SDS011;10977;46.802;11.952;2022-12-11T01:33:35;2.03;;;1.77;;
21630;SDS011;10977;46.802;11.952;2022-12-11T01:36:05;2.00;;;1.67;;
21630;SDS011;10977;46.802;11.952;2022-12-11T01:38:39;1.95;;;1.85;;
21630;SDS011;10977;46.802;11.952;2022-12-11T01:41:04;1.80;;;1.67;;
21630;SDS011;10977;46.802;11.952;2022-12-11T01:43:30;1.55;;;1.45;;
21630;SDS011;10977;46.802;11.952;2022-12-11T01:45:56;1.98;;;1.77;;
21630;SDS011;10977;46.802;11.952;2022-12-11T01:48:22;1.52;;;1.42;;
21630;SDS011;10977;46.802;11.952;2022-12-11T01:50:54;2.22;;;1.70;;
21630;SDS011;10977;46.802;11.952;2022-12-11T01:53:33;1.60;;;1.50;;
21630;SDS011;10977;46.802;11.952;2022-12-11T01:56:01;1.25;;;1.15;;
21630;SDS011;10977;46.802;11.952;2022-12-11T01:58:34;1.17;;;1.00;;
21630;SDS011;10977;46.802;11.952;2022-12-11T02:01:13;1.88;;;1.10;;
21630;SDS011;10977;46.802;11.952;2022-12-11T02:03:44;1.63;;;1.50;;
21630;SDS011;10977;46.802;11.952;2022-12-11T02:09:17;2.13;;;1.73;;
21630;SDS011;10977;46.802;11.952;2022-12-11T02:11:59;1.50;;;1.40;;
21630;SDS011;10977;46.802;11.952;2022-12-11T02:28:44;2.15;;;1.95;;
21630;SDS011;10977;46.802;11.952;2022-12-11T02:33:46;1.50;;;1.40;;
21630;SDS011;10977;46.802;11.952;2022-12-11T02:36:16;1.33;;;1.23;;
21630;SDS011;10977;46.802;11.952;2022-12-11T02:38:46;1.02;;;1.02;;
21630;SDS011;10977;46.802;11.952;2022-12-11T02:41:16;1.13;;;1.02;;
21630;SDS011;10977;46.802;11.952;2022-12-11T02:43:44;1.20;;;1.10;;
21630;SDS011;10977;46.802;11.952;2022-12-11T02:46:12;0.85;;;0.85;;
21630;SDS011;10977;46.802;11.952;2022-12-11T02:48:39;1.45;;;1.30;;
21630;SDS011;10977;46.802;11.952;2022-12-11T02:51:06;1.83;;;1.30;;
21630;SDS011;10977;46.802;11.952;2022-12-11T02:53:34;1.08;;;1.00;;
21630;SDS011;10977;46.802;11.952;2022-12-11T02:56:10;1.20;;;1.10;;
21630;SDS011;10977;46.802;11.952;2022-12-11T02:58:46;2.05;;;1.85;;
21630;SDS011;10977;46.802;11.952;2022-12-11T03:01:13;1.40;;;1.30;;
21630;SDS011;10977;46.802;11.952;2022-12-11T03:03:39;1.27;;;1.17;;
21630;SDS011;10977;46.802;11.952;2022-12-11T03:06:04;1.35;;;1.20;;
21630;SDS011;10977;46.802;11.952;2022-12-11T03:08:30;1.42;;;1.17;;
21630;SDS011;10977;46.802;11.952;2022-12-11T03:10:56;4.10;;;2.97;;
21630;SDS011;10977;46.802;11.952;2022-12-11T03:13:21;3.25;;;2.65;;
21630;SDS011;10977;46.802;11.952;2022-12-11T03:16:05;1.48;;;1.38;;
21630;SDS011;10977;46.802;11.952;2022-12-11T03:18:42;1.70;;;1.60;;
21630;SDS011;10977;46.802;11.952;2022-12-11T03:24:31;1.70;;;1.60;;
21630;SDS011;10977;46.802;11.952;2022-12-11T03:27:02;1.77;;;1.67;;
21630;SDS011;10977;46.802;11.952;2022-12-11T03:29:56;1.65;;;1.52;;
21630;SDS011;10977;46.802;11.952;2022-12-11T03:32:27;1.45;;;1.35;;
21630;SDS011;10977;46.802;11.952;2022-12-11T03:34:57;1.30;;;1.20;;
21630;SDS011;10977;46.802;11.952;2022-12-11T03:37:28;1.63;;;1.38;;
21630;SDS011;10977;46.802;11.952;2022-12-11T03:39:58;1.38;;;1.10;;
21630;SDS011;10977;46.802;11.952;2022-12-11T03:42:30;1.58;;;1.48;;
21630;SDS011;10977;46.802;11.952;2022-12-11T03:44:56;1.85;;;1.67;;
21630;SDS011;10977;46.802;11.952;2022-12-11T03:47:24;1.25;;;1.10;;
21630;SDS011;10977;46.802;11.952;2022-12-11T03:49:52;1.40;;;1.20;;
21630;SDS011;10977;46.802;11.952;2022-12-11T03:52:18;1.50;;;1.10;;
21630;SDS011;10977;46.802;11.952;2022-12-11T03:54:45;1.40;;;1.30;;
21630;SDS011;10977;46.802;11.952;2022-12-11T03:57:14;1.75;;;1.30;;
21630;SDS011;10977;46.802;11.952;2022-12-11T03:59:43;1.13;;;1.02;;
21630;SDS011;10977;46.802;11.952;2022-12-11T04:02:09;1.15;;;1.13;;
21630;SDS011;10977;46.802;11.952;2022-12-11T04:04:35;1.33;;;1.23;;
21630;SDS011;10977;46.802;11.952;2022-12-11T04:07:01;1.25;;;1.15;;
21630;SDS011;10977;46.802;11.952;2022-12-11T04:09:27;1.30;;;1.20;;
21630;SDS011;10977;46.802;11.952;2022-12-11T04:11:52;1.25;;;1.10;;
21630;SDS011;10977;46.802;11.952;2022-12-11T04:14:18;1.38;;;1.27;;
21630;SDS011;10977;46.802;11.952;2022-12-11T04:17:03;1.15;;;1.05;;
21630;SDS011;10977;46.802;11.952;2022-12-11T04:19:29;1.35;;;1.10;;
21630;SDS011;10977;46.802;11.952;2022-12-11T04:22:13;1.10;;;1.00;;
21630;SDS011;10977;46.802;11.952;2022-12-11T04:25:00;1.38;;;1.27;;
21630;SDS011;10977;46.802;11.952;2022-12-11T04:27:26;1.40;;;1.05;;
21630;SDS011;10977;46.802;11.952;2022-12-11T04:30:13;1.67;;;1.48;;
21630;SDS011;10977;46.802;11.952;2022-12-11T04:32:40;1.17;;;1.08;;
21630;SDS011;10977;46.802;11.952;2022-12-11T04:35:07;2.38;;;1.10;;
21630;SDS011;10977;46.802;11.952;2022-12-11T04:37:33;1.40;;;1.30;;
21630;SDS011;10977;46.802;11.952;2022-12-11T04:39:58;2.58;;;1.38;;
21630;SDS011;10977;46.802;11.952;2022-12-11T04:42:24;1.50;;;1.40;;
21630;SDS011;10977;46.802;11.952;2022-12-11T04:44:49;1.70;;;1.52;;
21630;SDS011;10977;46.802;11.952;2022-12-11T04:47:15;1.17;;;1.02;;
21630;SDS011;10977;46.802;11.952;2022-12-11T04:49:40;1.20;;;1.10;;
21630;SDS011;10977;46.802;11.952;2022-12-11T04:52:05;1.58;;;1.40;;
21630;SDS011;10977;46.802;11.952;2022-12-11T04:54:31;1.55;;;1.45;;
21630;SDS011;10977;46.802;11.952;2022-12-11T04:56:56;2.05;;;1.60;;
21630;SDS011;10977;46.802;11.952;2022-12-11T04:59:22;1.60;;;1.50;;
21630;SDS011;10977;46.802;11.952;2022-12-11T05:01:47;1.50;;;1.40;;
21630;SDS011;10977;46.802;11.952;2022-12-11T05:04:13;5.82;;;1.63;;
21630;SDS011;10977;46.802;11.952;2022-12-11T05:06:38;2.30;;;1.83;;
21630;SDS011;10977;46.802;11.952;2022-12-11T05:09:04;2.00;;;1.58;;
21630;SDS011;10977;46.802;11.952;2022-12-11T05:11:29;1.95;;;1.60;;
21630;SDS011;10977;46.802;11.952;2022-12-11T05:13:54;1.88;;;1.58;;
21630;SDS011;10977;46.802;11.952;2022-12-11T05:16:20;2.13;;;1.75;;
21630;SDS011;10977;46.802;11.952;2022-12-11T05:18:45;2.75;;;1.98;;
21630;SDS011;10977;46.802;11.952;2022-12-11T05:21:12;4.03;;;2.50;;
21630;SDS011;10977;46.802;11.952;2022-12-11T05:23:39;2.15;;;1.80;;
21630;SDS011;10977;46.802;11.952;2022-12-11T05:26:05;2.00;;;1.80;;
21630;SDS011;10977;46.802;11.952;2022-12-11T05:28:33;14.82;;;8.70;;
21630;SDS011;10977;46.802;11.952;2022-12-11T05:31:01;3.58;;;2.53;;
21630;SDS011;10977;46.802;11.952;2022-12-11T05:33:32;2.75;;;2.10;;
21630;SDS011;10977;46.802;11.952;2022-12-11T05:35:58;2.72;;;2.20;;
21630;SDS011;10977;46.802;11.952;2022-12-11T05:38:24;2.40;;;2.15;;
21630;SDS011;10977;46.802;11.952;2022-12-11T05:40:59;2.60;;;1.88;;
21630;SDS011;10977;46.802;11.952;2022-12-11T05:43:27;2.90;;;2.10;;
21630;SDS011;10977;46.802;11.952;2022-12-11T05:45:53;3.53;;;2.50;;
21630;SDS011;10977;46.802;11.952;2022-12-11T05:48:19;3.10;;;2.42;;
21630;SDS011;10977;46.802;11.952;2022-12-11T05:50:54;4.53;;;2.50;;
21630;SDS011;10977;46.802;11.952;2022-12-11T05:53:24;3.00;;;2.38;;
21630;SDS011;10977;46.802;11.952;2022-12-11T05:55:49;3.03;;;2.20;;
21630;SDS011;10977;46.802;11.952;2022-12-11T05:58:15;2.25;;;2.05;;
21630;SDS011;10977;46.802;11.952;2022-12-11T06:00:40;2.67;;;2.30;;
21630;SDS011;10977;46.802;11.952;2022-12-11T06:03:06;2.83;;;2.55;;
21630;SDS011;10977;46.802;11.952;2022-12-11T06:05:36;3.15;;;2.45;;
21630;SDS011;10977;46.802;11.952;2022-12-11T06:08:05;4.07;;;2.47;;
21630;SDS011;10977;46.802;11.952;2022-12-11T06:10:31;2.85;;;2.10;;
21630;SDS011;10977;46.802;11.952;2022-12-11T06:12:56;3.75;;;2.85;;
21630;SDS011;10977;46.802;11.952;2022-12-11T06:15:22;4.57;;;2.67;;
21630;SDS011;10977;46.802;11.952;2022-12-11T06:17:47;3.58;;;2.58;;
21630;SDS011;10977;46.802;11.952;2022-12-11T06:20:13;9.65;;;6.30;;
21630;SDS011;10977;46.802;11.952;2022-12-11T06:22:38;5.22;;;3.70;;
21630;SDS011;10977;46.802;11.952;2022-12-11T06:25:03;4.88;;;3.60;;
21630;SDS011;10977;46.802;11.952;2022-12-11T06:27:29;3.80;;;2.88;;
21630;SDS011;10977;46.802;11.952;2022-12-11T06:29:55;3.22;;;2.28;;
21630;SDS011;10977;46.802;11.952;2022-12-11T06:32:20;2.80;;;2.30;;
21630;SDS011;10977;46.802;11.952;2022-12-11T06:34:46;3.60;;;2.80;;
21630;SDS011;10977;46.802;11.952;2022-12-11T06:37:11;4.13;;;3.50;;
21630;SDS011;10977;46.802;11.952;2022-12-11T06:39:37;4.75;;;2.90;;
21630;SDS011;10977;46.802;11.952;2022-12-11T06:42:02;3.88;;;2.88;;
21630;SDS011;10977;46.802;11.952;2022-12-11T06:44:27;3.75;;;2.85;;
21630;SDS011;10977;46.802;11.952;2022-12-11T06:46:53;3.60;;;2.90;;
21630;SDS011;10977;46.802;11.952;2022-12-11T06:49:18;3.85;;;2.75;;
21630;SDS011;10977;46.802;11.952;2022-12-11T06:51:43;3.95;;;3.40;;
21630;SDS011;10977;46.802;11.952;2022-12-11T06:54:09;4.55;;;3.25;;
21630;SDS011;10977;46.802;11.952;2022-12-11T06:56:34;3.47;;;2.67;;
21630;SDS011;10977;46.802;11.952;2022-12-11T06:59:00;5.00;;;3.42;;
21630;SDS011;10977;46.802;11.952;2022-12-11T07:01:26;4.10;;;3.10;;
21630;SDS011;10977;46.802;11.952;2022-12-11T07:03:52;5.28;;;3.25;;
21630;SDS011;10977;46.802;11.952;2022-12-11T07:06:19;5.93;;;3.30;;
21630;SDS011;10977;46.802;11.952;2022-12-11T07:08:44;3.35;;;2.78;;
21630;SDS011;10977;46.802;11.952;2022-12-11T07:11:13;5.30;;;3.67;;
21630;SDS011;10977;46.802;11.952;2022-12-11T07:13:40;4.55;;;3.50;;
21630;SDS011;10977;46.802;11.952;2022-12-11T07:16:06;4.25;;;3.33;;
21630;SDS011;10977;46.802;11.952;2022-12-11T07:18:36;3.60;;;2.85;;
21630;SDS011;10977;46.802;11.952;2022-12-11T07:21:03;4.65;;;3.10;;
21630;SDS011;10977;46.802;11.952;2022-12-11T07:23:29;7.35;;;5.13;;
21630;SDS011;10977;46.802;11.952;2022-12-11T07:25:54;5.43;;;3.90;;
21630;SDS011;10977;46.802;11.952;2022-12-11T07:28:20;4.60;;;3.70;;
21630;SDS011;10977;46.802;11.952;2022-12-11T07:30:45;4.13;;;3.58;;
21630;SDS011;10977;46.802;11.952;2022-12-11T07:33:11;4.35;;;3.40;;
21630;SDS011;10977;46.802;11.952;2022-12-11T07:35:36;18.50;;;11.05;;
21630;SDS011;10977;46.802;11.952;2022-12-11T07:38:02;5.43;;;4.00;;
21630;SDS011;10977;46.802;11.952;2022-12-11T07:40:27;9.02;;;5.65;;
21630;SDS011;10977;46.802;11.952;2022-12-11T07:42:53;5.05;;;3.88;;
21630;SDS011;10977;46.802;11.952;2022-12-11T07:45:18;7.20;;;4.13;;
21630;SDS011;10977;46.802;11.952;2022-12-11T07:47:43;21.73;;;15.43;;
21630;SDS011;10977;46.802;11.952;2022-12-11T07:50:09;16.67;;;11.25;;
21630;SDS011;10977;46.802;11.952;2022-12-11T07:52:34;7.85;;;5.45;;
21630;SDS011;10977;46.802;11.952;2022-12-11T07:54:59;7.32;;;5.47;;
21630;SDS011;10977;46.802;11.952;2022-12-11T07:57:26;9.45;;;6.22;;
21630;SDS011;10977;46.802;11.952;2022-12-11T07:59:51;10.10;;;6.18;;
21630;SDS011;10977;46.802;11.952;2022-12-11T08:02:17;5.90;;;4.18;;
21630;SDS011;10977;46.802;11.952;2022-12-11T08:04:42;9.40;;;5.70;;
21630;SDS011;10977;46.802;11.952;2022-12-11T08:07:07;4.95;;;3.83;;
21630;SDS011;10977;46.802;11.952;2022-12-11T08:09:33;4.53;;;3.45;;
21630;SDS011;10977;46.802;11.952;2022-12-11T08:11:58;4.88;;;3.97;;
21630;SDS011;10977;46.802;11.952;2022-12-11T08:14:23;7.00;;;5.13;;
21630;SDS011;10977;46.802;11.952;2022-12-11T08:16:49;7.63;;;5.80;;
21630;SDS011;10977;46.802;11.952;2022-12-11T08:19:14;6.57;;;5.25;;
21630;SDS011;10977;46.802;11.952;2022-12-11T08:21:40;9.98;;;6.47;;
21630;SDS011;10977;46.802;11.952;2022-12-11T08:24:05;6.72;;;5.15;;
21630;SDS011;10977;46.802;11.952;2022-12-11T08:26:31;4.60;;;3.70;;
21630;SDS011;10977;46.802;11.952;2022-12-11T08:28:57;4.97;;;3.50;;
21630;SDS011;10977;46.802;11.952;2022-12-11T08:31:24;8.20;;;5.65;;
21630;SDS011;10977;46.802;11.952;2022-12-11T08:33:50;12.30;;;7.80;;
21630;SDS011;10977;46.802;11.952;2022-12-11T08:36:17;10.48;;;6.68;;
21630;SDS011;10977;46.802;11.952;2022-12-11T08:38:44;9.05;;;6.10;;
21630;SDS011;10977;46.802;11.952;2022-12-11T08:44:08;5.57;;;4.68;;
21630;SDS011;10977;46.802;11.952;2022-12-11T08:46:35;3.80;;;2.75;;
21630;SDS011;10977;46.802;11.952;2022-12-11T08:49:01;3.80;;;2.97;;
21630;SDS011;10977;46.802;11.952;2022-12-11T08:51:27;3.83;;;3.20;;
21630;SDS011;10977;46.802;11.952;2022-12-11T08:53:54;5.18;;;3.35;;
21630;SDS011;10977;46.802;11.952;2022-12-11T08:56:21;3.63;;;3.10;;
21630;SDS011;10977;46.802;11.952;2022-12-11T08:58:47;5.28;;;3.70;;
21630;SDS011;10977;46.802;11.952;2022-12-11T09:01:14;11.98;;;5.10;;
21630;SDS011;10977;46.802;11.952;2022-12-11T09:03:50;12.35;;;5.78;;
21630;SDS011;10977;46.802;11.952;2022-12-11T09:06:18;10.50;;;5.85;;
21630;SDS011;10977;46.802;11.952;2022-12-11T09:08:46;8.57;;;4.20;;
21630;SDS011;10977;46.802;11.952;2022-12-11T09:11:13;9.18;;;5.28;;
21630;SDS011;10977;46.802;11.952;2022-12-11T09:13:43;4.80;;;3.35;;
21630;SDS011;10977;46.802;11.952;2022-12-11T09:16:13;6.43;;;5.10;;
21630;SDS011;10977;46.802;11.952;2022-12-11T09:18:39;5.13;;;3.55;;
21630;SDS011;10977;46.802;11.952;2022-12-11T09:21:06;3.42;;;2.92;;
21630;SDS011;10977;46.802;11.952;2022-12-11T09:23:33;7.78;;;3.15;;
21630;SDS011;10977;46.802;11.952;2022-12-11T09:25:59;3.17;;;2.83;;
21630;SDS011;10977;46.802;11.952;2022-12-11T09:28:28;4.68;;;3.20;;
21630;SDS011;10977;46.802;11.952;2022-12-11T09:30:55;4.22;;;3.00;;
21630;SDS011;10977;46.802;11.952;2022-12-11T09:33:20;3.47;;;2.90;;
21630;SDS011;10977;46.802;11.952;2022-12-11T09:35:45;3.63;;;2.90;;
21630;SDS011;10977;46.802;11.952;2022-12-11T09:38:20;4.20;;;2.95;;
21630;SDS011;10977;46.802;11.952;2022-12-11T09:40:45;3.17;;;2.78;;
21630;SDS011;10977;46.802;11.952;2022-12-11T09:43:17;4.38;;;3.13;;
21630;SDS011;10977;46.802;11.952;2022-12-11T09:46:06;5.60;;;3.65;;
21630;SDS011;10977;46.802;11.952;2022-12-11T09:48:35;4.32;;;3.08;;
21630;SDS011;10977;46.802;11.952;2022-12-11T09:51:04;4.32;;;3.13;;
21630;SDS011;10977;46.802;11.952;2022-12-11T09:53:40;4.05;;;3.00;;
21630;SDS011;10977;46.802;11.952;2022-12-11T09:56:15;6.07;;;4.00;;
21630;SDS011;10977;46.802;11.952;2022-12-11T09:58:53;7.00;;;4.18;;
21630;SDS011;10977;46.802;11.952;2022-12-11T10:04:04;5.40;;;3.63;;
21630;SDS011;10977;46.802;11.952;2022-12-11T10:12:39;4.47;;;3.50;;
21630;SDS011;10977;46.802;11.952;2022-12-11T10:15:24;4.05;;;3.25;;
21630;SDS011;10977;46.802;11.952;2022-12-11T10:17:59;4.20;;;2.88;;
21630;SDS011;10977;46.802;11.952;2022-12-11T10:20:30;5.40;;;3.50;;
21630;SDS011;10977;46.802;11.952;2022-12-11T10:22:59;6.38;;;3.35;;
21630;SDS011;10977;46.802;11.952;2022-12-11T10:25:30;6.22;;;4.10;;
21630;SDS011;10977;46.802;11.952;2022-12-11T10:27:59;23.15;;;11.45;;
21630;SDS011;10977;46.802;11.952;2022-12-11T10:30:34;46.00;;;21.45;;
21630;SDS011;10977;46.802;11.952;2022-12-11T10:35:52;9.05;;;5.38;;
21630;SDS011;10977;46.802;11.952;2022-12-11T10:38:27;8.80;;;3.83;;
21630;SDS011;10977;46.802;11.952;2022-12-11T10:43:41;10.65;;;6.75;;
21630;SDS011;10977;46.802;11.952;2022-12-11T10:46:18;12.10;;;5.47;;
21630;SDS011;10977;46.802;11.952;2022-12-11T10:51:18;8.48;;;4.00;;
21630;SDS011;10977;46.802;11.952;2022-12-11T10:53:49;4.90;;;3.15;;
21630;SDS011;10977;46.802;11.952;2022-12-11T10:56:23;7.35;;;5.38;;
21630;SDS011;10977;46.802;11.952;2022-12-11T10:58:50;7.88;;;6.10;;
21630;SDS011;10977;46.802;11.952;2022-12-11T11:01:18;11.77;;;9.50;;
21630;SDS011;10977;46.802;11.952;2022-12-11T11:04:06;7.80;;;6.10;;
21630;SDS011;10977;46.802;11.952;2022-12-11T11:06:39;4.10;;;3.30;;
21630;SDS011;10977;46.802;11.952;2022-12-11T11:09:21;3.42;;;3.13;;
21630;SDS011;10977;46.802;11.952;2022-12-11T11:12:00;4.35;;;3.60;;
21630;SDS011;10977;46.802;11.952;2022-12-11T11:14:26;4.18;;;3.20;;
21630;SDS011;10977;46.802;11.952;2022-12-11T11:16:54;4.43;;;3.30;;
21630;SDS011;10977;46.802;11.952;2022-12-11T11:19:26;2.97;;;2.65;;
21630;SDS011;10977;46.802;11.952;2022-12-11T11:21:55;4.10;;;3.25;;
21630;SDS011;10977;46.802;11.952;2022-12-11T11:24:29;5.45;;;3.42;;
21630;SDS011;10977;46.802;11.952;2022-12-11T11:27:01;4.32;;;3.50;;
21630;SDS011;10977;46.802;11.952;2022-12-11T11:29:31;3.58;;;3.10;;
21630;SDS011;10977;46.802;11.952;2022-12-11T11:32:01;3.42;;;2.67;;
21630;SDS011;10977;46.802;11.952;2022-12-11T11:34:39;4.60;;;3.13;;
21630;SDS011;10977;46.802;11.952;2022-12-11T11:37:14;4.60;;;3.22;;
21630;SDS011;10977;46.802;11.952;2022-12-11T11:39:54;4.05;;;3.17;;
21630;SDS011;10977;46.802;11.952;2022-12-11T11:42:31;5.10;;;3.80;;
21630;SDS011;10977;46.802;11.952;2022-12-11T11:45:08;5.38;;;3.53;;
21630;SDS011;10977;46.802;11.952;2022-12-11T11:47:42;3.83;;;3.08;;
21630;SDS011;10977;46.802;11.952;2022-12-11T11:50:16;4.18;;;3.10;;
21630;SDS011;10977;46.802;11.952;2022-12-11T11:52:54;4.40;;;3.05;;
21630;SDS011;10977;46.802;11.952;2022-12-11T11:58:23;5.50;;;3.97;;
21630;SDS011;10977;46.802;11.952;2022-12-11T12:00:55;7.22;;;5.03;;
21630;SDS011;10977;46.802;11.952;2022-12-11T12:03:21;11.85;;;7.10;;
21630;SDS011;10977;46.802;11.952;2022-12-11T12:08:41;7.28;;;4.75;;
21630;SDS011;10977;46.802;11.952;2022-12-11T12:17:04;4.57;;;3.50;;
21630;SDS011;10977;46.802;11.952;2022-12-11T12:28:09;4.60;;;3.40;;
21630;SDS011;10977;46.802;11.952;2022-12-11T12:33:30;4.28;;;3.20;;
21630;SDS011;10977;46.802;11.952;2022-12-11T12:36:26;3.90;;;3.00;;
21630;SDS011;10977;46.802;11.952;2022-12-11T12:44:41;3.72;;;3.10;;
21630;SDS011;10977;46.802;11.952;2022-12-11T12:47:12;9.48;;;5.95;;
21630;SDS011;10977;46.802;11.952;2022-12-11T12:49:41;4.03;;;3.47;;
21630;SDS011;10977;46.802;11.952;2022-12-11T12:52:11;5.32;;;3.55;;
21630;SDS011;10977;46.802;11.952;2022-12-11T12:54:41;3.88;;;2.95;;
21630;SDS011;10977;46.802;11.952;2022-12-11T12:57:30;5.35;;;3.90;;
21630;SDS011;10977;46.802;11.952;2022-12-11T12:59:57;4.97;;;3.40;;
21630;SDS011;10977;46.802;11.952;2022-12-11T13:02:23;6.10;;;2.90;;
21630;SDS011;10977;46.802;11.952;2022-12-11T13:04:55;3.75;;;3.08;;
21630;SDS011;10977;46.802;11.952;2022-12-11T13:07:46;5.15;;;3.78;;
21630;SDS011;10977;46.802;11.952;2022-12-11T13:10:23;5.78;;;3.00;;
21630;SDS011;10977;46.802;11.952;2022-12-11T13:12:52;10.32;;;5.85;;
21630;SDS011;10977;46.802;11.952;2022-12-11T13:15:22;6.85;;;4.88;;
21630;SDS011;10977;46.802;11.952;2022-12-11T13:17:53;6.05;;;4.07;;
21630;SDS011;10977;46.802;11.952;2022-12-11T13:20:20;5.75;;;4.55;;
21630;SDS011;10977;46.802;11.952;2022-12-11T13:25:20;4.80;;;3.50;;
21630;SDS011;10977;46.802;11.952;2022-12-11T13:28:04;7.90;;;3.30;;
21630;SDS011;10977;46.802;11.952;2022-12-11T13:30:55;4.60;;;3.55;;
21630;SDS011;10977;46.802;11.952;2022-12-11T13:33:25;6.85;;;3.88;;
21630;SDS011;10977;46.802;11.952;2022-12-11T13:38:34;5.90;;;4.57;;
21630;SDS011;10977;46.802;11.952;2022-12-11T13:41:02;3.38;;;2.92;;
21630;SDS011;10977;46.802;11.952;2022-12-11T13:43:35;3.67;;;2.67;;
21630;SDS011;10977;46.802;11.952;2022-12-11T13:46:03;3.70;;;2.97;;
21630;SDS011;10977;46.802;11.952;2022-12-11T13:48:39;4.43;;;3.40;;
21630;SDS011;10977;46.802;11.952;2022-12-11T13:51:15;3.33;;;2.83;;
21630;SDS011;10977;46.802;11.952;2022-12-11T13:53:42;5.05;;;3.53;;
21630;SDS011;10977;46.802;11.952;2022-12-11T13:56:19;6.93;;;5.53;;
21630;SDS011;10977;46.802;11.952;2022-12-11T13:58:46;5.07;;;3.90;;
21630;SDS011;10977;46.802;11.952;2022-12-11T14:01:15;5.47;;;3.95;;
21630;SDS011;10977;46.802;11.952;2022-12-11T14:04:08;5.70;;;4.32;;
21630;SDS011;10977;46.802;11.952;2022-12-11T14:06:35;4.10;;;3.08;;
21630;SDS011;10977;46.802;11.952;2022-12-11T14:09:02;4.05;;;3.13;;
21630;SDS011;10977;46.802;11.952;2022-12-11T14:11:32;3.88;;;3.13;;
21630;SDS011;10977;46.802;11.952;2022-12-11T14:14:00;4.63;;;3.63;;
21630;SDS011;10977;46.802;11.952;2022-12-11T14:16:28;3.30;;;2.85;;
21630;SDS011;10977;46.802;11.952;2022-12-11T14:18:57;4.13;;;3.25;;
21630;SDS011;10977;46.802;11.952;2022-12-11T14:21:28;10.63;;;4.05;;
21630;SDS011;10977;46.802;11.952;2022-12-11T14:23:57;4.97;;;3.80;;
21630;SDS011;10977;46.802;11.952;2022-12-11T14:26:25;6.45;;;3.33;;
21630;SDS011;10977;46.802;11.952;2022-12-11T14:28:52;3.97;;;2.92;;
21630;SDS011;10977;46.802;11.952;2022-12-11T14:31:24;5.13;;;3.15;;
21630;SDS011;10977;46.802;11.952;2022-12-11T14:34:29;4.55;;;2.60;;
21630;SDS011;10977;46.802;11.952;2022-12-11T14:36:59;3.08;;;2.60;;
21630;SDS011;10977;46.802;11.952;2022-12-11T14:39:30;3.97;;;3.00;;
21630;SDS011;10977;46.802;11.952;2022-12-11T14:42:01;3.95;;;2.97;;
21630;SDS011;10977;46.802;11.952;2022-12-11T14:44:32;4.65;;;3.60;;
21630;SDS011;10977;46.802;11.952;2022-12-11T14:47:15;4.97;;;4.00;;
21630;SDS011;10977;46.802;11.952;2022-12-11T14:49:54;3.67;;;2.92;;
21630;SDS011;10977;46.802;11.952;2022-12-11T14:52:24;4.78;;;3.30;;
21630;SDS011;10977;46.802;11.952;2022-12-11T14:54:58;3.42;;;2.83;;
21630;SDS011;10977;46.802;11.952;2022-12-11T14:57:27;4.28;;;3.20;;
21630;SDS011;10977;46.802;11.952;2022-12-11T14:59:54;3.38;;;2.80;;
21630;SDS011;10977;46.802;11.952;2022-12-11T15:07:38;4.22;;;2.92;;
21630;SDS011;10977;46.802;11.952;2022-12-11T15:10:05;4.10;;;2.58;;
21630;SDS011;10977;46.802;11.952;2022-12-11T15:12:31;3.97;;;2.90;;
21630;SDS011;10977;46.802;11.952;2022-12-11T15:14:57;3.80;;;3.20;;
21630;SDS011;10977;46.802;11.952;2022-12-11T15:17:28;4.38;;;3.30;;
21630;SDS011;10977;46.802;11.952;2022-12-11T15:19:55;4.85;;;3.50;;
21630;SDS011;10977;46.802;11.952;2022-12-11T15:22:27;7.10;;;4.40;;
21630;SDS011;10977;46.802;11.952;2022-12-11T15:24:56;8.93;;;4.50;;
21630;SDS011;10977;46.802;11.952;2022-12-11T15:29:56;5.28;;;3.70;;
21630;SDS011;10977;46.802;11.952;2022-12-11T15:32:22;6.68;;;4.38;;
21630;SDS011;10977;46.802;11.952;2022-12-11T15:34:55;6.88;;;5.00;;
21630;SDS011;10977;46.802;11.952;2022-12-11T15:37:29;5.05;;;4.40;;
21630;SDS011;10977;46.802;11.952;2022-12-11T15:40:00;5.90;;;4.35;;
21630;SDS011;10977;46.802;11.952;2022-12-11T15:42:29;6.80;;;4.10;;
21630;SDS011;10977;46.802;11.952;2022-12-11T15:44:57;5.90;;;3.85;;
21630;SDS011;10977;46.802;11.952;2022-12-11T15:47:25;6.28;;;4.95;;
21630;SDS011;10977;46.802;11.952;2022-12-11T15:49:53;10.07;;;6.22;;
21630;SDS011;10977;46.802;11.952;2022-12-11T15:52:20;30.35;;;18.40;;
21630;SDS011;10977;46.802;11.952;2022-12-11T15:54:46;29.73;;;18.52;;
21630;SDS011;10977;46.802;11.952;2022-12-11T15:57:12;12.45;;;8.88;;
21630;SDS011;10977;46.802;11.952;2022-12-11T15:59:41;63.80;;;32.05;;
21630;SDS011;10977;46.802;11.952;2022-12-11T16:02:09;39.80;;;22.00;;
21630;SDS011;10977;46.802;11.952;2022-12-11T16:04:36;26.60;;;14.98;;
21630;SDS011;10977;46.802;11.952;2022-12-11T16:07:02;23.02;;;13.38;;
21630;SDS011;10977;46.802;11.952;2022-12-11T16:09:27;16.13;;;10.23;;